Ana Sayfa
METAR-TAF:

METAR-TAF

Havaalanları :

Ankara Esenboğa Havalimanı

Ankara Esenboğa, Türkiye

Enlem: 40-07N, Boylam: 032-59E, yükseklik: 953 m

Güncel hava durumu gözlemi

Rapor saat 03:50 UTC de 36 dakika önce yapıldı.
Rüzgar değişken yönden 2 kt
Sıcaklık -7°C
Nem 86%
Basınç 1028 hPa
Görüş mesafesi 10 km veya daha fazla
1500 m altında bulut yok ve kümülonimbus yok

METAR: LTAC 220350Z VRB02KT CAVOK M07/M09 Q1028 NOSIG RMK RWY21L 01003KT RWY03L VRB01KT RWY21R 00000KT

Saat: 07:26 (04:26 UTC)

Tahmin

Rapor saat 22:40 UTC de 5 saat ve 46 dakika önce yapıldı.
Ayın 22'si saat 00 UTC'den ayın 22'si saat 24 UTC'ye kadar geçerli Tahmin
Rüzgar değişken yönden 2 kt
Görüş mesafesi 10 km veya daha fazla
1500 m altında bulut yok ve kümülonimbus yok
Olasılık 30%
ayın 22'si saat 03 UTC'den ayın 22'si saat 07 UTC'ye kadar
Görüş mesafesi: 4000 m
Pus

TAF: LTAC 212240Z 2200/2224 VRB02KT CAVOK PROB30 2203/2207 4000 BR

4.000'den fazla havaalanı için hava durumu gözlemleri ve tahminleri (METAR ve TAF raporları).

Kullanılabilir istasyonlar harita üzerinde sarı ve kırmızı noktalarla gösterilir.

İstasyonun adını görmek için fareyi noktanın üzerinde gezdirin.

Sonrasında hava gözlem ve tahminlerini görmek için tıklayın.

Haritayı değiştirmek için: yaklaştırmak için siyah artı işaretli yeşil düğmeye ve uzaklaştırmak için de eksi işaretli düğmeye hızla tıklayın; bitişik haritalar için yeşil okları kullanın.


METAR-TAF: